Time;durP1;ratioP1;P1;durP2;ratioP2;P2;SDS_P1;SDS_P2;PMS_P1;PMS_P2;Temp;Humidity;BMP_temperature;BMP_pressure;BME280_temperature;BME280_humidity;BME280_pressure;Samples;Min_cycle;Max_cycle;Signal;HPM_P1;HPM_P2
2022/06/24 00:01:25;;;;;;;4.15;2.60;;;;;;;20.30;44.25;100126.88;5041753;28;20048;-71
2022/06/24 00:03:50;;;;;;;5.22;2.20;;;;;;;20.27;44.55;100129.75;5039233;28;20037;-71
2022/06/24 00:06:17;;;;;;;5.38;2.30;;;;;;;20.22;44.54;100126.44;5041260;28;20036;-71
2022/06/24 00:09:12;;;;;;;5.05;2.70;;;;;;;20.17;45.76;100133.84;5040268;28;20076;-71
2022/06/24 00:11:38;;;;;;;4.65;2.45;;;;;;;20.10;45.34;100131.50;5035942;28;20089;-71
2022/06/24 00:14:07;;;;;;;2.85;2.25;;;;;;;20.09;45.32;100128.88;5039687;28;20069;-71
2022/06/24 00:16:52;;;;;;;5.72;2.47;;;;;;;20.05;46.27;100133.53;5041203;28;20036;-70
2022/06/24 00:19:17;;;;;;;5.07;2.33;;;;;;;20.01;45.58;100139.13;5042194;28;20464;-71
2022/06/24 00:21:43;;;;;;;4.18;2.35;;;;;;;19.98;45.85;100142.84;5038422;28;20072;-71
2022/06/24 00:24:20;;;;;;;4.85;2.40;;;;;;;19.95;46.83;100140.31;5041831;28;20087;-71
2022/06/24 00:26:46;;;;;;;4.07;2.55;;;;;;;19.91;46.23;100138.72;5042526;28;20033;-71
2022/06/24 00:29:16;;;;;;;4.45;2.65;;;;;;;19.88;46.82;100136.22;5041205;28;20064;-70
2022/06/24 00:31:58;;;;;;;3.47;2.45;;;;;;;19.81;46.68;100137.50;5044516;28;20033;-71
2022/06/24 00:34:23;;;;;;;3.55;2.20;;;;;;;19.75;46.89;100137.78;5045989;28;20040;-71
2022/06/24 00:36:49;;;;;;;6.47;2.42;;;;;;;19.72;47.37;100138.78;5040794;28;20112;-71
2022/06/24 00:39:14;;;;;;;5.18;2.30;;;;;;;19.64;47.61;100139.16;5046322;28;20041;-71
2022/06/24 00:41:40;;;;;;;4.30;2.80;;;;;;;19.61;48.04;100139.31;5043482;28;20033;-71
2022/06/24 00:44:09;;;;;;;3.22;2.20;;;;;;;19.59;48.06;100134.97;5043454;28;20044;-71
2022/06/24 00:46:40;;;;;;;4.20;2.38;;;;;;;19.58;48.62;100135.94;5046348;28;20400;-71
2022/06/24 00:49:09;;;;;;;6.10;2.42;;;;;;;19.53;48.40;100143.31;5039986;28;20045;-71
2022/06/24 00:51:37;;;;;;;4.30;2.50;;;;;;;19.48;49.13;100138.19;5042936;28;20045;-71
2022/06/24 00:54:12;;;;;;;5.60;2.60;;;;;;;19.41;49.74;100134.06;5044051;28;20056;-71
2022/06/24 00:56:37;;;;;;;3.45;2.28;;;;;;;19.37;49.61;100140.53;5039821;28;20511;-71
2022/06/24 00:59:06;;;;;;;5.20;2.55;;;;;;;19.36;49.50;100141.44;5040451;28;20033;-71
2022/06/24 01:01:35;;;;;;;4.55;2.60;;;;;;;19.34;49.63;100143.34;5033086;28;20037;-71
2022/06/24 01:04:01;;;;;;;6.05;2.70;;;;;;;19.31;50.18;100138.13;5045359;28;20399;-72
2022/06/24 01:06:29;;;;;;;6.57;2.67;;;;;;;19.29;50.27;100142.72;5039571;28;20084;-70
2022/06/24 01:08:55;;;;;;;4.78;2.65;;;;;;;19.29;50.02;100140.03;5043842;28;20419;-71
2022/06/24 01:11:29;;;;;;;5.38;2.90;;;;;;;19.27;50.53;100138.28;5040261;28;20048;-71
2022/06/24 01:13:55;;;;;;;6.68;2.83;;;;;;;19.21;50.53;100138.59;5041856;28;20048;-71
2022/06/24 01:16:21;;;;;;;3.78;2.60;;;;;;;19.18;50.83;100130.72;5044728;28;20400;-71
2022/06/24 01:18:56;;;;;;;4.32;2.58;;;;;;;19.17;51.57;100131.63;5042904;28;20042;-71
2022/06/24 01:21:39;;;;;;;4.07;2.40;;;;;;;19.15;52.19;100132.66;5041083;28;20057;-71
2022/06/24 01:24:17;;;;;;;5.70;2.75;;;;;;;19.10;52.12;100129.31;5042342;28;20475;-71
2022/06/24 01:26:48;;;;;;;5.82;2.58;;;;;;;19.06;51.93;100128.63;5039171;28;20029;-71
2022/06/24 01:29:14;;;;;;;5.60;2.50;;;;;;;19.02;51.89;100129.69;5042831;28;20036;-72
2022/06/24 01:31:40;;;;;;;6.93;2.80;;;;;;;19.02;52.29;100135.03;5043704;28;20041;-71
2022/06/24 01:34:08;;;;;;;3.72;2.65;;;;;;;19.02;52.10;100133.25;5041349;28;20048;-71
2022/06/24 01:36:33;;;;;;;5.35;2.67;;;;;;;18.99;52.23;100124.50;5044149;28;20539;-71
2022/06/24 01:38:59;;;;;;;4.47;2.50;;;;;;;18.97;52.03;100129.94;5039992;28;20121;-71
2022/06/24 01:41:24;;;;;;;6.60;3.28;;;;;;;18.94;52.30;100127.41;5042479;28;20040;-71
2022/06/24 01:43:49;;;;;;;4.18;2.47;;;;;;;18.91;52.65;100121.31;5043547;28;20127;-71
2022/06/24 01:46:15;;;;;;;4.93;2.45;;;;;;;18.89;53.16;100126.75;5041924;28;20065;-71
2022/06/24 01:48:40;;;;;;;5.47;2.70;;;;;;;18.85;53.01;100126.97;5044287;28;20045;-71
2022/06/24 01:51:09;;;;;;;3.55;2.42;;;;;;;18.83;53.29;100127.88;5036340;28;20033;-71
2022/06/24 01:53:35;;;;;;;4.93;2.47;;;;;;;18.79;53.11;100128.97;5043701;28;20438;-71
2022/06/24 01:56:00;;;;;;;5.72;2.53;;;;;;;18.79;53.15;100123.63;5042763;28;20051;-71
2022/06/24 01:58:25;;;;;;;6.80;4.72;;;;;;;18.77;53.37;100128.19;5041940;28;20029;-71
2022/06/24 02:00:51;;;;;;;8.98;6.63;;;;;;;18.78;53.54;100132.56;5043570;28;20048;-71
2022/06/24 02:03:17;;;;;;;7.57;6.45;;;;;;;18.77;53.93;100127.31;5039177;28;20527;-71
2022/06/24 02:05:45;;;;;;;7.53;6.35;;;;;;;18.77;53.76;100127.31;5043354;28;20040;-71
2022/06/24 02:08:11;;;;;;;8.23;6.68;;;;;;;18.77;53.90;100122.84;5041783;28;20064;-71
2022/06/24 02:13:27;;;;;;;8.65;5.65;;;;;;;18.75;53.34;100122.03;5039320;28;20041;-71
2022/06/24 02:15:54;;;;;;;6.63;6.03;;;;;;;18.73;53.81;100120.34;5041342;28;20041;-71
2022/06/24 02:18:19;;;;;;;7.15;5.95;;;;;;;18.71;53.57;100123.09;5043827;28;20564;-71
2022/06/24 02:20:45;;;;;;;5.88;4.70;;;;;;;18.70;53.58;100125.81;5040820;28;20073;-71
2022/06/24 02:23:11;;;;;;;7.10;5.53;;;;;;;18.68;53.64;100125.91;5042307;28;20051;-71
2022/06/24 02:25:37;;;;;;;5.90;4.68;;;;;;;18.66;53.79;100127.78;5042001;28;20036;-71
2022/06/24 02:28:02;;;;;;;5.55;3.90;;;;;;;18.64;53.97;100121.63;5041518;28;20045;-71
2022/06/24 02:30:27;;;;;;;5.38;4.05;;;;;;;18.61;53.88;100116.44;5043147;28;20029;-71
2022/06/24 02:32:53;;;;;;;5.55;3.38;;;;;;;18.58;53.89;100121.94;5034379;28;20577;-71
2022/06/24 02:35:18;;;;;;;5.65;3.15;;;;;;;18.54;53.73;100118.50;5043631;28;20506;-71
2022/06/24 02:37:43;;;;;;;6.32;3.75;;;;;;;18.51;54.01;100121.31;5040533;28;20415;-71
2022/06/24 02:42:55;;;;;;;8.20;4.88;;;;;;;18.48;54.21;100115.25;5036266;28;20037;-71
2022/06/24 02:45:20;;;;;;;6.63;5.85;;;;;;;18.45;54.15;100121.63;5042131;28;20036;-71
2022/06/24 02:47:46;;;;;;;6.45;5.35;;;;;;;18.46;54.02;100123.34;5041917;28;20055;-71
2022/06/24 02:50:11;;;;;;;5.70;4.72;;;;;;;18.46;54.53;100127.81;5040326;28;20033;-71
2022/06/24 02:52:36;;;;;;;5.60;4.65;;;;;;;18.42;54.15;100124.44;5042256;28;20091;-71
2022/06/24 02:55:02;;;;;;;7.13;4.95;;;;;;;18.42;54.55;100127.09;5039909;28;20049;-71
2022/06/24 02:57:27;;;;;;;6.75;5.75;;;;;;;18.42;54.38;100132.44;5042754;28;20033;-71
2022/06/24 02:59:52;;;;;;;6.45;4.82;;;;;;;18.42;54.63;100131.56;5040868;28;20381;-71
2022/06/24 03:02:18;;;;;;;6.93;3.92;;;;;;;18.38;54.83;100130.84;5041096;28;20537;-71
2022/06/24 03:04:43;;;;;;;8.85;5.05;;;;;;;18.36;54.70;100136.22;5041854;28;20037;-71
2022/06/24 03:07:08;;;;;;;6.53;4.30;;;;;;;18.37;54.56;100131.78;5038094;28;20048;-71
2022/06/24 03:09:33;;;;;;;7.72;4.55;;;;;;;18.37;54.87;100135.31;5043357;28;20029;-71
2022/06/24 03:11:59;;;;;;;5.53;3.78;;;;;;;18.37;54.80;100135.31;5038900;28;20060;-71
2022/06/24 03:14:24;;;;;;;6.00;4.32;;;;;;;18.40;54.60;100132.50;5042412;28;20045;-71
2022/06/24 03:16:49;;;;;;;4.93;3.75;;;;;;;18.39;54.90;100130.78;5040836;28;20099;-71
2022/06/24 03:19:15;;;;;;;6.97;5.05;;;;;;;18.42;54.66;100126.22;5039131;28;20041;-71
2022/06/24 03:21:40;;;;;;;5.57;3.20;;;;;;;18.42;55.32;100120.88;5040955;28;20091;-71
2022/06/24 03:24:06;;;;;;;5.22;3.00;;;;;;;18.33;55.85;100128.34;5039990;28;20037;-71
2022/06/24 03:26:31;;;;;;;4.60;2.88;;;;;;;18.30;55.61;100128.50;5042551;28;20079;-71
2022/06/24 03:28:57;;;;;;;6.10;3.20;;;;;;;18.31;55.43;100124.91;5039553;28;20049;-71
2022/06/24 03:31:22;;;;;;;7.47;3.53;;;;;;;18.37;55.70;100127.31;5041344;28;20033;-71
2022/06/24 03:33:48;;;;;;;7.25;3.88;;;;;;;18.37;55.89;100124.63;5040762;28;20037;-71
2022/06/24 03:36:13;;;;;;;6.18;4.30;;;;;;;18.44;55.32;100125.19;5037449;28;20120;-71
2022/06/24 03:38:38;;;;;;;4.90;3.28;;;;;;;18.53;55.36;100119.47;5041905;28;20484;-71
2022/06/24 03:41:04;;;;;;;6.78;3.28;;;;;;;18.52;55.28;100120.41;5038745;28;20485;-71
2022/06/24 03:43:29;;;;;;;5.20;3.45;;;;;;;18.58;55.08;100127.28;5042597;28;20072;-71
2022/06/24 03:46:01;;;;;;;8.38;5.80;;;;;;;18.68;55.05;100127.69;5032539;28;20064;-71
2022/06/24 03:48:28;;;;;;;7.07;6.38;;;;;;;18.73;54.77;100126.56;5036721;28;20041;-71
2022/06/24 03:50:53;;;;;;;8.82;6.43;;;;;;;18.81;54.94;100115.53;5034700;28;20041;-71
2022/06/24 03:53:18;;;;;;;6.55;4.22;;;;;;;18.87;54.86;100115.25;5032090;28;20091;-71
2022/06/24 03:55:48;;;;;;;7.30;4.10;;;;;;;18.96;55.06;100124.66;5042349;28;20044;-71
2022/06/24 03:58:13;;;;;;;8.77;3.50;;;;;;;18.93;55.12;100122.97;5040105;28;20515;-71
2022/06/24 04:00:38;;;;;;;4.85;2.55;;;;;;;18.98;54.97;100122.78;5040737;28;20033;-71
2022/06/24 04:03:04;;;;;;;8.02;5.20;;;;;;;19.08;54.75;100116.03;5043676;28;20043;-70
2022/06/24 04:05:29;;;;;;;6.68;5.65;;;;;;;19.19;54.15;100116.38;5043465;28;20034;-71
2022/06/24 04:07:56;;;;;;;4.95;4.30;;;;;;;19.29;54.46;100113.28;5041984;28;20029;-71
2022/06/24 04:10:22;;;;;;;6.32;5.72;;;;;;;19.35;54.13;100121.00;5043404;28;20061;-71
2022/06/24 04:12:47;;;;;;;6.15;4.57;;;;;;;19.44;53.99;100118.75;5037907;28;20072;-71
2022/06/24 04:15:13;;;;;;;4.80;3.75;;;;;;;19.53;53.81;100119.22;5044226;28;20518;-71
2022/06/24 04:17:38;;;;;;;7.78;5.10;;;;;;;19.62;53.31;100122.31;5043954;28;20052;-71
2022/06/24 04:20:05;;;;;;;7.40;5.25;;;;;;;19.73;53.75;100126.28;5045658;28;20479;-71
2022/06/24 04:22:31;;;;;;;7.32;5.10;;;;;;;19.81;53.51;100124.09;5041700;28;20120;-70
2022/06/24 04:24:56;;;;;;;8.15;4.95;;;;;;;19.90;53.58;100120.94;5045565;28;20129;-71
2022/06/24 04:27:21;;;;;;;8.90;6.57;;;;;;;20.00;53.35;100115.97;5043335;28;20080;-71
2022/06/24 04:29:47;;;;;;;6.18;4.32;;;;;;;20.11;53.37;100122.50;5043959;28;20033;-71
2022/06/24 04:32:12;;;;;;;6.35;4.57;;;;;;;20.22;52.65;100123.75;5043978;28;20091;-72
2022/06/24 04:34:38;;;;;;;6.25;4.78;;;;;;;20.32;52.75;100122.31;5041867;28;20045;-71
2022/06/24 04:37:05;;;;;;;6.55;4.65;;;;;;;20.41;52.43;100116.50;5044370;28;20047;-71
2022/06/24 04:39:30;;;;;;;5.35;4.30;;;;;;;20.51;52.44;100123.09;5038920;28;20567;-71
2022/06/24 04:41:55;;;;;;;6.05;5.18;;;;;;;20.62;51.57;100113.59;5038105;28;20038;-71
2022/06/24 04:44:21;;;;;;;5.43;4.20;;;;;;;20.71;51.46;100113.13;5044589;28;20491;-71
2022/06/24 04:46:47;;;;;;;6.97;4.40;;;;;;;20.81;51.18;100103.63;5044432;28;20052;-71
2022/06/24 04:49:12;;;;;;;5.82;4.50;;;;;;;20.93;50.79;100112.78;5043016;28;20182;-71
2022/06/24 04:51:37;;;;;;;8.18;4.97;;;;;;;21.00;51.29;100109.69;5044492;28;20045;-71
2022/06/24 04:54:03;;;;;;;7.97;4.50;;;;;;;21.05;51.08;100101.38;5042032;28;20041;-71
2022/06/24 04:56:28;;;;;;;8.73;5.68;;;;;;;21.13;50.43;100112.53;5045138;28;20037;-71
2022/06/24 04:58:54;;;;;;;9.57;7.10;;;;;;;21.23;50.15;100110.22;5043025;28;20136;-71
2022/06/24 05:01:19;;;;;;;6.45;4.90;;;;;;;21.32;50.74;100103.44;5043058;28;20106;-71
2022/06/24 05:03:45;;;;;;;7.30;4.28;;;;;;;21.39;50.45;100104.84;5044356;28;20178;-71
2022/06/24 05:06:11;;;;;;;4.97;3.40;;;;;;;21.45;49.90;100105.34;5039353;28;20041;-71
2022/06/24 05:08:36;;;;;;;5.22;3.40;;;;;;;21.53;49.87;100101.34;5044678;28;20082;-71
2022/06/24 05:11:02;;;;;;;7.45;4.57;;;;;;;21.61;50.10;100091.03;5041591;28;20036;-71
2022/06/24 05:13:27;;;;;;;4.63;3.00;;;;;;;21.69;49.88;100091.44;5044209;28;20453;-72
2022/06/24 05:15:53;;;;;;;6.80;5.70;;;;;;;21.82;49.40;100088.88;5043227;28;20037;-71
2022/06/24 05:18:18;;;;;;;5.30;4.30;;;;;;;21.92;49.18;100089.22;5042983;28;20035;-71
2022/06/24 05:20:43;;;;;;;5.35;4.43;;;;;;;22.00;48.80;100070.81;5044404;28;20515;-71
2022/06/24 05:23:08;;;;;;;6.78;5.80;;;;;;;22.07;49.14;100070.34;5040634;28;20480;-72
2022/06/24 05:25:34;;;;;;;8.30;4.60;;;;;;;22.17;48.35;100075.16;5044963;28;20040;-71
2022/06/24 05:27:59;;;;;;;7.47;5.05;;;;;;;22.23;47.99;100070.28;5041943;28;20065;-71
2022/06/24 05:30:24;;;;;;;8.07;5.47;;;;;;;22.31;47.79;100067.97;5043841;28;20508;-71
2022/06/24 05:32:50;;;;;;;8.55;5.00;;;;;;;22.41;47.94;100065.59;5042294;28;20416;-72
2022/06/24 05:35:15;;;;;;;6.93;5.57;;;;;;;22.51;47.94;100068.59;5042578;28;20092;-71
2022/06/24 05:37:40;;;;;;;7.15;6.00;;;;;;;22.63;47.37;100066.91;5041134;28;20037;-72
2022/06/24 05:40:07;;;;;;;5.60;3.72;;;;;;;22.74;47.49;100070.66;5041299;28;20132;-71
2022/06/24 05:42:33;;;;;;;6.47;4.18;;;;;;;22.82;47.23;100070.19;5044051;28;20044;-71
2022/06/24 05:44:58;;;;;;;6.18;4.38;;;;;;;22.90;47.44;100072.38;5042108;28;20041;-71
2022/06/24 05:47:23;;;;;;;6.40;4.47;;;;;;;23.00;46.87;100073.50;5042949;28;20098;-72
2022/06/24 05:49:49;;;;;;;4.03;3.17;;;;;;;23.07;46.49;100066.78;5043201;28;20053;-72
2022/06/24 05:52:14;;;;;;;7.28;4.45;;;;;;;23.13;46.12;100054.72;5040882;28;20041;-71
2022/06/24 05:57:23;;;;;;;4.50;3.58;;;;;;;23.35;45.33;100059.59;5042078;28;20037;-72
2022/06/24 05:59:49;;;;;;;6.65;3.80;;;;;;;23.48;45.50;100051.53;5041274;28;20048;-71
2022/06/24 06:02:14;;;;;;;7.63;4.50;;;;;;;23.57;45.12;100043.69;5043676;28;20045;-71
2022/06/24 06:04:39;;;;;;;5.22;3.70;;;;;;;23.67;45.36;100048.47;5041078;28;20038;-72
2022/06/24 06:07:05;;;;;;;5.00;3.58;;;;;;;23.75;45.25;100041.59;5039378;28;20059;-71
2022/06/24 06:09:30;;;;;;;5.97;4.80;;;;;;;23.86;44.83;100042.69;5042104;28;20396;-72
2022/06/24 06:11:57;;;;;;;6.50;4.40;;;;;;;23.95;45.08;100036.69;5041397;28;20036;-71
2022/06/24 06:14:22;;;;;;;4.85;3.95;;;;;;;24.03;44.95;100045.94;5043503;28;20037;-72
2022/06/24 06:16:48;;;;;;;6.78;4.00;;;;;;;24.12;44.60;100043.56;5040613;28;20034;-71
2022/06/24 06:19:14;;;;;;;5.38;3.05;;;;;;;24.23;44.82;100041.84;5043621;28;20427;-72
2022/06/24 06:21:39;;;;;;;5.35;2.90;;;;;;;24.32;44.49;100026.84;5040463;28;20037;-72
2022/06/24 06:24:04;;;;;;;6.28;4.90;;;;;;;24.39;44.22;100038.94;5042106;28;20128;-72
2022/06/24 06:26:30;;;;;;;8.63;4.22;;;;;;;24.53;43.67;100034.41;5042239;28;20033;-71
2022/06/24 06:28:56;;;;;;;6.13;3.63;;;;;;;24.61;43.11;100037.41;5041015;28;20038;-71
2022/06/24 06:31:22;;;;;;;5.65;3.85;;;;;;;24.70;42.98;100017.84;5037613;28;20040;-72
2022/06/24 06:33:47;;;;;;;8.48;5.40;;;;;;;24.82;42.86;100032.28;5036472;28;20057;-71
2022/06/24 06:36:15;;;;;;;5.95;4.22;;;;;;;24.92;43.19;100026.09;5036104;28;20041;-72
2022/06/24 06:38:41;;;;;;;6.68;4.15;;;;;;;25.07;42.67;100021.41;5044617;28;20033;-71
2022/06/24 06:41:06;;;;;;;6.53;4.68;;;;;;;25.22;42.32;100018.53;5043389;28;20045;-71
2022/06/24 06:43:31;;;;;;;4.40;2.60;;;;;;;25.35;41.13;100019.34;5040736;28;20041;-71
2022/06/24 06:45:57;;;;;;;6.07;3.60;;;;;;;25.41;40.89;100018.00;5034077;28;20040;-71
2022/06/24 06:48:23;;;;;;;4.50;3.22;;;;;;;25.57;40.45;100018.53;5043131;28;20064;-71
2022/06/24 06:50:56;;;;;;;6.00;4.10;;;;;;;25.69;39.23;100014.91;5040672;28;20670;-71
2022/06/24 06:53:22;;;;;;;6.43;3.67;;;;;;;25.80;38.61;100005.97;5040580;28;20042;-71
2022/06/24 06:55:48;;;;;;;5.07;3.03;;;;;;;25.90;37.84;100000.75;5043142;28;20503;-72
2022/06/24 06:58:14;;;;;;;6.95;5.00;;;;;;;26.02;37.49;99997.09;5039869;28;20071;-71
2022/06/24 07:00:39;;;;;;;7.07;3.58;;;;;;;26.15;36.75;100002.38;5042583;28;20024;-72
2022/06/24 07:03:05;;;;;;;5.03;3.63;;;;;;;26.26;35.65;99988.00;5040260;28;20136;-72
2022/06/24 07:05:31;;;;;;;6.13;2.95;;;;;;;26.30;36.22;99987.59;5041437;28;20116;-71
2022/06/24 07:07:56;;;;;;;4.97;3.35;;;;;;;26.43;35.33;99992.88;5041194;28;20041;-72
2022/06/24 07:10:22;;;;;;;4.75;2.97;;;;;;;26.53;34.78;99980.38;5040028;28;20037;-72
2022/06/24 07:12:47;;;;;;;5.32;3.95;;;;;;;26.65;34.77;99973.09;5042302;28;20068;-72
2022/06/24 07:15:14;;;;;;;2.97;2.00;;;;;;;26.70;34.63;99980.81;5039881;28;20534;-72
2022/06/24 07:17:40;;;;;;;7.05;3.60;;;;;;;26.84;34.51;99967.03;5040457;28;20040;-72
2022/06/24 07:20:06;;;;;;;2.90;1.58;;;;;;;26.87;33.36;99966.75;5041310;28;20079;-72
2022/06/24 07:22:31;;;;;;;4.18;2.80;;;;;;;27.00;33.64;99964.75;5039320;28;20037;-71
2022/06/24 07:24:57;;;;;;;3.83;2.17;;;;;;;27.08;32.91;99967.66;5042610;28;20119;-72
2022/06/24 07:27:22;;;;;;;4.53;2.65;;;;;;;27.20;32.82;99962.25;5039299;28;20077;-72
2022/06/24 07:29:47;;;;;;;4.38;2.90;;;;;;;27.27;32.40;99961.59;5042532;28;20065;-72
2022/06/24 07:32:13;;;;;;;6.28;3.13;;;;;;;27.45;32.39;99955.59;5038696;28;20130;-72
2022/06/24 07:34:38;;;;;;;11.32;3.80;;;;;;;27.55;32.32;99951.09;5041227;28;20088;-72
2022/06/24 07:37:04;;;;;;;7.25;3.33;;;;;;;27.68;31.86;99940.06;5039140;28;20195;-72
2022/06/24 07:39:30;;;;;;;4.78;2.08;;;;;;;27.79;31.46;99948.09;5042055;28;20124;-72
2022/06/24 07:41:56;;;;;;;7.13;3.80;;;;;;;27.86;31.86;99943.03;5038507;28;20044;-72
2022/06/24 07:44:22;;;;;;;5.57;3.78;;;;;;;27.97;32.00;99943.81;5042079;28;20025;-72
2022/06/24 07:46:47;;;;;;;4.68;2.90;;;;;;;28.06;30.96;99938.56;5040142;28;20579;-72
2022/06/24 07:49:13;;;;;;;4.22;3.13;;;;;;;28.13;31.75;99942.44;5041109;28;20036;-72
2022/06/24 07:51:38;;;;;;;6.43;2.15;;;;;;;28.20;31.33;99935.50;5040317;28;20036;-72
2022/06/24 07:54:07;;;;;;;5.47;3.35;;;;;;;28.26;31.38;99928.66;5039962;28;20484;-72
2022/06/24 07:59:21;;;;;;;2.78;1.85;;;;;;;28.37;29.85;99925.81;5042124;28;20033;-72
2022/06/24 08:01:47;;;;;;;4.90;2.20;;;;;;;28.50;29.91;99931.03;5038843;28;20403;-72
2022/06/24 08:04:12;;;;;;;3.15;2.08;;;;;;;28.57;29.19;99921.34;5041315;28;20040;-72
2022/06/24 08:06:40;;;;;;;3.90;1.77;;;;;;;28.59;28.80;99917.47;5039187;28;20049;-72
2022/06/24 08:09:06;;;;;;;4.57;2.00;;;;;;;28.55;27.85;99907.03;5039811;28;20033;-72
2022/06/24 08:11:32;;;;;;;3.47;1.52;;;;;;;28.69;27.73;99911.19;5041540;28;20021;-72
2022/06/24 08:13:57;;;;;;;6.18;2.20;;;;;;;28.78;27.41;99900.34;5038994;28;20460;-72
2022/06/24 08:16:23;;;;;;;5.18;2.17;;;;;;;28.88;27.98;99896.81;5041828;28;20044;-73
2022/06/24 08:18:51;;;;;;;2.08;1.30;;;;;;;29.03;26.73;99885.34;5040002;28;20268;-72
2022/06/24 08:21:17;;;;;;;3.63;2.28;;;;;;;29.14;27.85;99887.09;5038226;28;20484;-72
2022/06/24 08:23:42;;;;;;;4.03;2.03;;;;;;;29.23;27.21;99880.78;5041389;28;20102;-72
2022/06/24 08:26:08;;;;;;;5.57;2.35;;;;;;;29.31;27.07;99882.75;5037708;28;20080;-72
2022/06/24 08:28:33;;;;;;;4.15;2.30;;;;;;;29.29;27.81;99882.03;5034928;28;20475;-72
2022/06/24 08:30:58;;;;;;;3.55;2.17;;;;;;;29.43;27.11;99880.75;5041086;28;20044;-72
2022/06/24 08:33:24;;;;;;;4.97;3.03;;;;;;;29.50;26.77;99876.41;5040032;28;20033;-72
2022/06/24 08:35:50;;;;;;;6.05;2.90;;;;;;;29.58;26.98;99873.84;5040342;28;20052;-72
2022/06/24 08:38:17;;;;;;;4.68;1.95;;;;;;;29.65;26.89;99866.81;5037573;28;20037;-72
2022/06/24 08:40:46;;;;;;;3.15;1.60;;;;;;;29.51;26.00;99872.72;5038518;28;20064;-72
2022/06/24 08:43:13;;;;;;;4.00;2.38;;;;;;;29.70;26.71;99867.25;5040899;28;20036;-72
2022/06/24 08:45:38;;;;;;;3.20;1.85;;;;;;;29.85;25.96;99870.34;5039833;28;20068;-72
2022/06/24 08:48:07;;;;;;;5.13;2.92;;;;;;;29.97;26.78;99851.09;5027243;28;20457;-72
2022/06/24 08:50:32;;;;;;;16.98;6.30;;;;;;;30.05;26.28;99854.78;5045173;28;20392;-72
2022/06/24 08:53:04;;;;;;;18.77;6.32;;;;;;;30.17;26.09;99852.72;5041308;28;20055;-72
2022/06/24 08:55:39;;;;;;;4.32;2.42;;;;;;;30.15;25.99;99850.13;5044357;28;20041;-72
2022/06/24 08:58:09;;;;;;;3.65;2.58;;;;;;;30.00;26.03;99862.56;5045129;28;20033;-72
2022/06/24 09:00:35;;;;;;;7.18;3.30;;;;;;;30.06;25.71;99850.19;5039091;28;20042;-72
2022/06/24 09:03:05;;;;;;;7.70;2.63;;;;;;;30.14;25.26;99845.69;5043783;28;20052;-72
2022/06/24 09:05:31;;;;;;;3.42;2.13;;;;;;;30.17;25.38;99846.41;5044120;28;20135;-72
2022/06/24 09:08:07;;;;;;;4.55;1.98;;;;;;;30.17;25.67;99846.41;5041805;28;20040;-72
2022/06/24 09:10:34;;;;;;;2.00;1.40;;;;;;;30.39;25.35;99837.84;5040283;28;20025;-72
2022/06/24 09:12:59;;;;;;;5.30;2.42;;;;;;;30.38;25.37;99835.28;5042816;28;20048;-72
2022/06/24 09:15:25;;;;;;;5.45;2.13;;;;;;;30.41;25.13;99841.25;5044160;28;20037;-72
2022/06/24 09:17:50;;;;;;;4.10;1.70;;;;;;;30.55;24.46;99837.16;5041960;28;20116;-72
2022/06/24 09:20:21;;;;;;;4.60;2.85;;;;;;;30.73;24.89;99839.88;5045087;28;20033;-72
2022/06/24 09:22:47;;;;;;;3.92;1.77;;;;;;;30.67;25.10;99835.06;5042009;28;20108;-72
2022/06/24 09:25:12;;;;;;;4.95;2.58;;;;;;;30.79;25.08;99842.00;5040837;28;20492;-72
2022/06/24 09:27:46;;;;;;;3.83;2.08;;;;;;;30.86;25.11;99831.34;5042522;28;20041;-73
2022/06/24 09:30:21;;;;;;;4.40;1.67;;;;;;;30.93;24.48;99838.72;5038264;28;20071;-72
2022/06/24 09:32:53;;;;;;;8.13;2.97;;;;;;;30.79;24.11;99836.53;5042139;28;20507;-71
2022/06/24 09:35:20;;;;;;;2.70;1.65;;;;;;;30.79;24.11;99822.91;5044584;28;20047;-72
2022/06/24 09:37:47;;;;;;;4.65;1.42;;;;;;;31.04;23.51;99828.59;5040528;28;20026;-72
2022/06/24 09:40:28;;;;;;;4.43;1.60;;;;;;;31.17;23.36;99818.13;5043235;28;20040;-73
2022/06/24 09:43:05;;;;;;;3.40;1.80;;;;;;;31.36;23.55;99817.06;5020368;28;20038;-72
2022/06/24 09:45:48;;;;;;;13.27;3.90;;;;;;;31.59;23.48;99814.66;5042039;28;20373;-72
2022/06/24 09:48:32;;;;;;;4.80;2.38;;;;;;;31.72;23.23;99817.78;5040017;28;20066;-72
2022/06/24 09:51:05;;;;;;;3.63;2.33;;;;;;;31.86;23.50;99805.44;5038027;28;20088;-72
2022/06/24 09:53:35;;;;;;;4.20;1.80;;;;;;;31.84;23.08;99794.66;5041701;28;20030;-72
2022/06/24 09:56:01;;;;;;;3.50;1.88;;;;;;;31.93;22.80;99795.56;5044046;28;20414;-73
2022/06/24 09:58:27;;;;;;;4.72;2.20;;;;;;;31.76;21.94;99797.38;5041223;28;20033;-72
2022/06/24 10:00:53;;;;;;;6.07;3.17;;;;;;;31.57;22.85;99790.31;5041817;28;20664;-73
2022/06/24 10:03:19;;;;;;;3.20;1.98;;;;;;;31.81;22.75;99795.00;5042527;28;20119;-72
2022/06/24 10:05:46;;;;;;;4.82;2.38;;;;;;;31.93;23.39;99795.56;5041676;28;20070;-72
2022/06/24 10:08:15;;;;;;;4.45;2.30;;;;;;;32.16;23.32;99790.38;5041804;28;20029;-72
2022/06/24 10:10:46;;;;;;;6.25;2.60;;;;;;;32.20;22.99;99789.03;5037765;28;20032;-72
2022/06/24 10:13:29;;;;;;;6.28;3.13;;;;;;;32.41;23.17;99782.22;5041309;28;20073;-72
2022/06/24 10:15:57;;;;;;;4.25;3.10;;;;;;;32.62;22.87;99777.16;5038598;28;20041;-72
2022/06/24 10:18:29;;;;;;;4.25;2.33;;;;;;;32.41;22.78;99769.44;5042074;28;20032;-72
2022/06/24 10:21:01;;;;;;;4.35;3.00;;;;;;;32.49;23.40;99766.75;5043400;28;20051;-72
2022/06/24 10:23:41;;;;;;;5.10;3.67;;;;;;;32.76;22.79;99761.94;5041303;28;20065;-72
2022/06/24 10:26:11;;;;;;;3.47;2.47;;;;;;;32.96;23.25;99748.78;5040594;28;20069;-72
2022/06/24 10:29:04;;;;;;;5.32;3.95;;;;;;;33.21;22.11;99748.75;5042628;28;20064;-72
2022/06/24 10:31:41;;;;;;;5.88;3.03;;;;;;;33.41;22.32;99743.75;5038734;28;20053;-72
2022/06/24 10:34:07;;;;;;;4.22;2.88;;;;;;;33.63;22.16;99753.94;5040305;28;20103;-72
2022/06/24 10:36:32;;;;;;;4.18;2.20;;;;;;;33.86;21.86;99740.31;5040345;28;20041;-72
2022/06/24 10:39:14;;;;;;;4.03;2.40;;;;;;;33.92;21.33;99730.53;5040794;28;20560;-72
2022/06/24 10:41:41;;;;;;;;;;;;;;;33.76;21.82;99742.44;5040185;28;20421;-72
2022/06/24 10:44:23;;;;;;;3.20;1.95;;;;;;;33.78;21.51;99732.16;5041487;28;19999;-72
2022/06/24 10:47:14;;;;;;;3.10;2.10;;;;;;;33.74;21.37;99726.19;5043382;28;20556;-72
2022/06/24 10:49:51;;;;;;;3.58;2.30;;;;;;;33.87;21.53;99713.81;5031489;28;20524;-73
2022/06/24 10:52:48;;;;;;;3.90;2.10;;;;;;;33.93;21.24;99732.22;5038318;28;20057;-72
2022/06/24 10:57:49;;;;;;;5.30;1.95;;;;;;;34.18;21.13;99735.72;5036476;28;20037;-72
2022/06/24 11:00:20;;;;;;;3.20;2.17;;;;;;;34.33;20.64;99731.16;5041094;28;20127;-72
2022/06/24 11:02:49;;;;;;;6.35;3.72;;;;;;;34.44;20.59;99725.25;5039191;28;20048;-72
2022/06/24 11:05:21;;;;;;;4.13;2.38;;;;;;;34.61;20.36;99726.00;5039246;28;20087;-72
2022/06/24 11:07:49;;;;;;;3.75;2.42;;;;;;;34.85;20.36;99719.44;5037086;28;20036;-72
2022/06/24 11:10:32;;;;;;;4.68;2.30;;;;;;;34.95;20.41;99724.63;5042484;28;20021;-72
2022/06/24 11:12:59;;;;;;;7.63;2.70;;;;;;;34.68;20.18;99728.84;5039346;28;20038;-72
2022/06/24 11:15:45;;;;;;;3.80;2.10;;;;;;;34.42;20.85;99732.78;5039954;28;20029;-72
2022/06/24 11:18:15;;;;;;;3.40;2.40;;;;;;;34.75;20.86;99728.97;5040360;28;20079;-73
2022/06/24 11:20:49;;;;;;;4.97;3.08;;;;;;;35.00;20.20;99724.06;5039624;28;20083;-73
2022/06/24 11:23:17;;;;;;;4.75;2.70;;;;;;;35.22;20.35;99730.56;5040314;28;20041;-72
2022/06/24 11:25:59;;;;;;;5.95;3.08;;;;;;;35.54;20.31;99721.91;5040194;28;20048;-73
2022/06/24 11:28:29;;;;;;;7.72;3.03;;;;;;;35.73;19.37;99715.00;5038606;28;20134;-72
2022/06/24 11:31:13;;;;;;;6.57;3.10;;;;;;;36.02;20.04;99715.97;5039474;28;20037;-72
2022/06/24 11:33:39;;;;;;;4.38;2.47;;;;;;;36.01;19.33;99714.28;5039407;28;20037;-72
2022/06/24 11:36:04;;;;;;;2.83;2.03;;;;;;;35.91;19.21;99702.75;5040097;28;20136;-72
2022/06/24 11:38:32;;;;;;;5.43;3.33;;;;;;;36.01;19.75;99710.69;5042065;28;20060;-72
2022/06/24 11:40:57;;;;;;;3.92;2.90;;;;;;;36.10;19.95;99704.88;5035486;28;20041;-72
2022/06/24 11:43:23;;;;;;;2.83;2.08;;;;;;;36.25;19.54;99704.84;5041737;28;20537;-72
2022/06/24 11:45:49;;;;;;;7.45;3.53;;;;;;;36.32;19.88;99697.53;5040805;28;20666;-72